^^
Datos históricos de la estación: Murcia-Puente Tocinos
Diario Informe para Junio 8, 2019 Unidades:  Ingés    Métrico   Ambas
Diario Semanal Mensual Anual
  Máxima: Mínima: Promedio:
Temperatura: 99.7 °F 78.6 °F 88.7 °F
Punto de rocio: 64 °F 50.9 °F 57.2 °F
Humedad: 56% 21% 36%
Velocidad viento: 13.7mph 1.4mph 4.8mph
Racha viento: 25mph - -
Viento- - SSO
Presión: 29.9 in 29.8 in -
Precipitación: 0 in    
 
 
Tabla de datos para Junio 8, 2019
Hora Temperatura Punto de rocio Presión Viento Velocidad viento Racha viento Humedad Intensidad lluvia(por hora) Nubes
00:04 82.8 °F 62.8 °F 29.8 in NNO 2.4 mph 5 mph 51% 0 in
00:09 82.8 °F 63.1 °F 29.8 in NNO 2.3 mph 5 mph 51.8% 0 in
00:14 82.6 °F 63.3 °F 29.8 in NNE 1.8 mph 3.6 mph 52.1% 0 in
00:19 82.4 °F 63.5 °F 29.8 in NNE 1.9 mph 4.7 mph 53% 0 in
00:24 82.2 °F 63.3 °F 29.8 in NE 2.4 mph 5 mph 53% 0 in
00:29 82.2 °F 63.3 °F 29.8 in NE 2.5 mph 5 mph 53% 0 in
00:34 82.2 °F 63 °F 29.8 in NE 2.9 mph 5 mph 52% 0 in
00:39 82.4 °F 63 °F 29.8 in North 2.9 mph 5 mph 51.9% 0 in
00:44 82.2 °F 63.1 °F 29.8 in NO 2.9 mph 5 mph 52.6% 0 in
00:49 82 °F 62.6 °F 29.8 in ENE 2.6 mph 5 mph 51.7% 0 in
00:54 82 °F 62.4 °F 29.8 in NNE 1.4 mph 3.6 mph 51.5% 0 in
00:59 82 °F 63.1 °F 29.8 in NO 1.5 mph 4 mph 52.8% 0 in
01:04 82 °F 63.3 °F 29.8 in NO 1.8 mph 4 mph 53.2% 0 in
01:09 81.9 °F 63.7 °F 29.8 in NO 1.7 mph 4 mph 54% 0 in
01:14 81.7 °F 63.5 °F 29.8 in NO 1.4 mph 5.2 mph 54% 0 in
01:19 81.5 °F 63.3 °F 29.8 in NNO 1.5 mph 5 mph 54% 0 in
01:24 81.3 °F 63.3 °F 29.8 in NO 1.8 mph 4.6 mph 54.6% 0 in
01:29 81.3 °F 63.7 °F 29.8 in ONO 1.9 mph 5 mph 55% 0 in
01:34 81.1 °F 63.5 °F 29.8 in ONO 2.4 mph 5 mph 55% 0 in
01:39 81.1 °F 63.7 °F 29.8 in ONO 2.3 mph 5 mph 55.5% 0 in
01:44 81.1 °F 64 °F 29.8 in ONO 1.8 mph 3.1 mph 56% 0 in
01:49 81.1 °F 63.9 °F 29.8 in Sur 1.8 mph 4.7 mph 55.8% 0 in
01:54 81.1 °F 63.5 °F 29.8 in Sur 1.8 mph 5 mph 55% 0 in
01:59 81.3 °F 63.3 °F 29.8 in SSE 2.1 mph 6.9 mph 54.5% 0 in
02:04 81.5 °F 63.3 °F 29.8 in Sur 3.1 mph 7 mph 54% 0 in
02:09 81.3 °F 62.8 °F 29.8 in Sur 3.3 mph 7.4 mph 53.4% 0 in
02:14 81.3 °F 62.4 °F 29.8 in Sur 4.3 mph 7 mph 52.7% 0 in
02:19 81.5 °F 61.7 °F 29.8 in SSO 4.3 mph 7 mph 51.2% 0 in
02:24 81.7 °F 61.7 °F 29.8 in SSO 4.3 mph 7 mph 51% 0 in
02:29 81.7 °F 61.3 °F 29.8 in SO 4.2 mph 7 mph 50.1% 0 in
02:34 81.9 °F 61.3 °F 29.8 in SO 4 mph 7.4 mph 49.8% 0 in
02:39 81.9 °F 60.8 °F 29.8 in SO 4 mph 7 mph 48.8% 0 in
02:44 82 °F 60.4 °F 29.8 in SO 4 mph 6.9 mph 48.1% 0 in
02:49 82 °F 60.4 °F 29.8 in SO 4 mph 7 mph 48% 0 in
02:54 82 °F 60.1 °F 29.8 in SO 4 mph 7 mph 47.4% 0 in
02:59 82 °F 59.7 °F 29.8 in SO 3.9 mph 6.2 mph 47% 0 in
03:04 82 °F 59.7 °F 29.8 in SO 3.6 mph 6 mph 47% 0 in
03:09 82 °F 59.4 °F 29.8 in SO 3.7 mph 6.9 mph 46.2% 0 in
03:14 82 °F 59.2 °F 29.8 in SO 4 mph 7 mph 46% 0 in
03:19 81.9 °F 58.8 °F 29.8 in SSO 4.1 mph 7 mph 45.6% 0 in
03:24 81.9 °F 59.2 °F 29.8 in Sur 4.7 mph 7.4 mph 46% 0 in
03:29 81.9 °F 58.8 °F 29.8 in Sur 4.8 mph 8.5 mph 45.6% 0 in
03:34 81.7 °F 58.8 °F 29.8 in SSO 5.4 mph 9 mph 45.9% 0 in
03:39 81.3 °F 58.6 °F 29.8 in SSO 5.4 mph 9.2 mph 46% 0 in
03:44 81.3 °F 58.3 °F 29.8 in SSO 5.4 mph 9 mph 45.6% 0 in
03:49 81.5 °F 58.1 °F 29.8 in SO 5.2 mph 7 mph 45% 0 in
03:54 81.5 °F 58.1 °F 29.8 in SO 4.3 mph 7 mph 45% 0 in
03:59 81.3 °F 57.9 °F 29.8 in SSO 4.2 mph 7 mph 45% 0 in
04:04 81.3 °F 57.9 °F 29.8 in SSO 4 mph 7.4 mph 45% 0 in
04:09 81.3 °F 57.9 °F 29.8 in SO 4 mph 7 mph 45% 0 in
04:14 81.1 °F 57.7 °F 29.8 in SO 4 mph 8.1 mph 45% 0 in
04:19 81.1 °F 57.7 °F 29.8 in OSO 3.9 mph 8 mph 45% 0 in
04:24 81 °F 57.7 °F 29.8 in Oeste 3.6 mph 5 mph 45.3% 0 in
04:29 80.6 °F 57.7 °F 29.8 in OSO 3.5 mph 5.2 mph 45.8% 0 in
04:34 80.2 °F 57.6 °F 29.8 in OSO 3.1 mph 5.8 mph 46% 0 in
04:39 80.1 °F 57.6 °F 29.8 in Oeste 3.1 mph 6 mph 46.5% 0 in
04:44 79.7 °F 57.6 °F 29.8 in OSO 3.1 mph 5 mph 47% 0 in
04:49 79.5 °F 57.6 °F 29.8 in OSO 3 mph 5.8 mph 47% 0 in
04:54 79.5 °F 57.6 °F 29.8 in SO 2.4 mph 6.2 mph 47% 0 in
04:59 79.5 °F 57.6 °F 29.8 in SO 2.8 mph 6.9 mph 47% 0 in
05:04 79.5 °F 57.4 °F 29.8 in SO 4.3 mph 8.1 mph 46.8% 0 in
05:09 79.9 °F 57.2 °F 29.8 in SO 4.3 mph 8.1 mph 46% 0 in
05:14 79.9 °F 57.4 °F 29.8 in OSO 4.7 mph 8 mph 46% 0 in
05:19 79.9 °F 57.2 °F 29.8 in OSO 4.3 mph 5.9 mph 45.8% 0 in
05:24 79.9 °F 57.2 °F 29.8 in SO 2.4 mph 6 mph 45.8% 0 in
05:29 79.9 °F 57.4 °F 29.8 in OSO 2.5 mph 6 mph 46% 0 in
05:34 79.9 °F 57 °F 29.8 in SO 3.1 mph 5 mph 45.7% 0 in
05:39 79.7 °F 56.7 °F 29.8 in OSO 3 mph 5 mph 45.4% 0 in
05:44 79.5 °F 56.5 °F 29.8 in SO 2.4 mph 5 mph 45.2% 0 in
05:49 79.7 °F 56.5 °F 29.8 in SO 2.4 mph 5 mph 45% 0 in
05:54 79.7 °F 56.5 °F 29.8 in SO 2.4 mph 5 mph 45% 0 in
05:59 79.5 °F 55.8 °F 29.8 in SSO 2.7 mph 8.1 mph 44% 0 in
06:04 79.5 °F 55.4 °F 29.8 in SSO 3.6 mph 9.2 mph 43.6% 0 in
06:09 79.5 °F 55.6 °F 29.8 in SSO 3.9 mph 9 mph 43.9% 0 in
06:14 79.3 °F 55.6 °F 29.8 in SSO 5.2 mph 7 mph 44% 0 in
06:19 79.3 °F 55.4 °F 29.8 in SSO 4.9 mph 7.4 mph 43.8% 0 in
06:24 79.5 °F 55.2 °F 29.8 in SO 3.6 mph 7 mph 43.1% 0 in
06:29 79.7 °F 55.2 °F 29.8 in Oeste 3.5 mph 6 mph 43% 0 in
06:34 79.5 °F 55.8 °F 29.8 in ONO 2.9 mph 3.5 mph 44% 0 in
06:39 79.3 °F 55.6 °F 29.8 in ONO 2.7 mph 4 mph 44% 0 in
06:44 79.2 °F 55.9 °F 29.8 in ONO 1.8 mph 5 mph 44.9% 0 in
06:49 79 °F 55.9 °F 29.8 in Oeste 1.9 mph 4.7 mph 45% 0 in
06:54 78.8 °F 55.6 °F 29.8 in OSO 2 mph 5.2 mph 45% 0 in
06:59 78.6 °F 55.8 °F 29.8 in OSO 2.2 mph 5 mph 45.5% 0 in
07:04 78.6 °F 55.6 °F 29.8 in OSO 3.1 mph 5 mph 45% 0 in
07:09 78.8 °F 55.2 °F 29.8 in SO 3 mph 5.8 mph 44.4% 0 in
07:14 79.2 °F 55.2 °F 29.8 in SO 2.9 mph 6 mph 43.8% 0 in
07:19 79.5 °F 54.9 °F 29.9 in SSO 2.9 mph 6.9 mph 42.6% 0 in
07:24 80.2 °F 54.5 °F 29.9 in SO 3.1 mph 7 mph 41.2% 0 in
07:29 80.4 °F 54.7 °F 29.9 in SO 3.2 mph 7 mph 41% 0 in
07:34 80.6 °F 54.9 °F 29.9 in Oeste 4 mph 6 mph 41.2% 0 in
07:39 80.4 °F 55 °F 29.9 in Oeste 3.8 mph 5 mph 41.7% 0 in
07:44 80.4 °F 54.7 °F 29.9 in SO 2.9 mph 6.2 mph 41% 0 in
07:49 80.6 °F 54.7 °F 29.9 in SO 2.9 mph 6.2 mph 40.8% 0 in
07:54 81 °F 54.3 °F 29.9 in SO 2.9 mph 8.5 mph 40% 0 in
07:59 81.3 °F 54.5 °F 29.9 in SO 3.3 mph 9 mph 39.7% 0 in
08:04 81.5 °F 54.1 °F 29.9 in SO 4.7 mph 8.5 mph 39.1% 0 in
08:09 81.7 °F 54.3 °F 29.9 in SO 4.7 mph 9 mph 39% 0 in
08:14 81.9 °F 54.5 °F 29.9 in SO 4.3 mph 9 mph 39% 0 in
08:19 81.9 °F 54.5 °F 29.9 in SO 4.2 mph 9 mph 39% 0 in
08:24 82 °F 54.5 °F 29.9 in SO 4 mph 8.1 mph 39% 0 in
08:29 82.2 °F 54.3 °F 29.9 in SO 4.2 mph 8.5 mph 38.4% 0 in
08:34 82.4 °F 54.1 °F 29.9 in SO 4.7 mph 9 mph 38% 0 in
08:39 82.6 °F 54.3 °F 29.9 in SO 4.7 mph 8.1 mph 38% 0 in
08:44 82.8 °F 54.5 °F 29.9 in SO 4.3 mph 8 mph 38% 0 in
08:49 82.9 °F 54.7 °F 29.9 in SO 4.3 mph 7.4 mph 38% 0 in
08:54 83.1 °F 54.7 °F 29.9 in SO 4.3 mph 8.1 mph 37.9% 0 in
08:59 83.5 °F 54.5 °F 29.9 in SO 4.2 mph 8.5 mph 37.1% 0 in
09:04 83.7 °F 54.9 °F 29.9 in OSO 3.6 mph 9 mph 37.3% 0 in
09:09 83.8 °F 55.9 °F 29.9 in ONO 3.5 mph 6.2 mph 38.5% 0 in
09:14 84 °F 55.6 °F 29.9 in SSO 3.1 mph 6 mph 37.8% 0 in
09:19 84 °F 54.9 °F 29.9 in SO 3.2 mph 7.4 mph 37% 0 in
09:24 84.2 °F 55 °F 29.9 in SO 3.6 mph 7 mph 37% 0 in
09:29 84.4 °F 55.2 °F 29.9 in SSO 3.6 mph 6 mph 37% 0 in
09:34 84.6 °F 55 °F 29.9 in SO 3.6 mph 8.1 mph 36.7% 0 in
09:39 84.7 °F 55 °F 29.9 in SO 3.7 mph 8.1 mph 36.4% 0 in
09:44 84.9 °F 55 °F 29.9 in SO 4.3 mph 8.5 mph 36% 0 in
09:49 84.9 °F 55.2 °F 29.9 in SSO 4.5 mph 9 mph 36.2% 0 in
09:54 85.3 °F 55.2 °F 29.9 in SSO 5.2 mph 8.1 mph 36.1% 0 in
09:59 85.5 °F 55.6 °F 29.9 in SO 5.2 mph 8.5 mph 36% 0 in
10:04 86 °F 55.9 °F 29.9 in SO 5.2 mph 9 mph 36% 0 in
10:09 86.4 °F 55.8 °F 29.9 in SO 5 mph 9 mph 35.3% 0 in
10:14 86.7 °F 55.8 °F 29.9 in SSO 4.3 mph 8.5 mph 34.9% 0 in
10:19 87.1 °F 55.8 °F 29.9 in SO 4.5 mph 9 mph 34.6% 0 in
10:24 87.3 °F 55.8 °F 29.9 in SO 5.2 mph 8 mph 34.5% 0 in
10:29 87.4 °F 55.6 °F 29.9 in SO 5 mph 7 mph 34% 0 in
10:34 87.8 °F 55.9 °F 29.9 in SSO 4 mph 8.5 mph 34% 0 in
10:39 88 °F 56.1 °F 29.9 in SO 4.2 mph 9 mph 34% 0 in
10:44 88.3 °F 55.9 °F 29.9 in SO 4.7 mph 8 mph 33.5% 0 in
10:49 88.7 °F 55.9 °F 29.9 in SSO 4.4 mph 7 mph 33.1% 0 in
10:54 89.2 °F 56.1 °F 29.9 in Oeste 3.1 mph 7 mph 32.6% 0 in
10:59 89.6 °F 55 °F 29.9 in OSO 3.3 mph 7 mph 30.9% 0 in
11:04 90 °F 54.5 °F 29.9 in SO 4 mph 7 mph 30.2% 0 in
11:09 90.1 °F 54.5 °F 29.9 in Oeste 4 mph 10.2 mph 30% 0 in
11:14 90.3 °F 54.7 °F 29.9 in OSO 4 mph 10.4 mph 29.9% 0 in
11:19 90.7 °F 54.3 °F 29.9 in OSO 4.2 mph 8.1 mph 29.2% 0 in
11:24 90.9 °F 54.3 °F 29.9 in Oeste 4.7 mph 8 mph 29% 0 in
11:29 91.2 °F 54.7 °F 29.9 in Sur 4.4 mph 7 mph 29.1% 0 in
11:34 92.1 °F 55 °F 29.9 in SSE 3.1 mph 6.9 mph 28.8% 0 in
11:39 92.8 °F 54.3 °F 29.9 in Oeste 3.1 mph 10.4 mph 27.4% 0 in
11:44 92.7 °F 53.8 °F 29.9 in NO 3.1 mph 10 mph 27% 0 in
11:49 92.8 °F 54 °F 29.9 in Oeste 3.1 mph 7 mph 27% 0 in
11:54 93.2 °F 54 °F 29.9 in SSO 3.1 mph 7.4 mph 26.6% 0 in
11:59 93.6 °F 53.4 °F 29.9 in Sur 3.1 mph 9.2 mph 25.9% 0 in
12:04 93.9 °F 52.9 °F 29.9 in OSO 3.1 mph 10.4 mph 25.2% 0 in
12:09 94.1 °F 52.9 °F 29.9 in OSO 3.5 mph 11.5 mph 25% 0 in
12:14 94.1 °F 52.9 °F 29.9 in Oeste 5.4 mph 12 mph 25% 0 in
12:19 94.3 °F 52.2 °F 29.9 in Oeste 5.3 mph 9.2 mph 24.2% 0 in
12:24 94.3 °F 52 °F 29.9 in OSO 4.7 mph 9 mph 24% 0 in
12:29 94.5 °F 52.2 °F 29.9 in Oeste 4.6 mph 10.4 mph 24.1% 0 in
12:34 94.6 °F 52.3 °F 29.9 in Oeste 4 mph 10 mph 24.1% 0 in
12:39 94.6 °F 52.2 °F 29.9 in ONO 4.1 mph 9 mph 24% 0 in
12:44 95 °F 52.5 °F 29.9 in NNE 4.7 mph 7 mph 24% 0 in
12:49 95.5 °F 52.3 °F 29.9 in NE 4.4 mph 8.1 mph 23.4% 0 in
12:54 95.7 °F 52.5 °F 29.9 in NE 2.9 mph 8 mph 23.4% 0 in
12:59 95.9 °F 52.2 °F 29.9 in NE 2.9 mph 6 mph 23% 0 in
13:04 96.3 °F 52.5 °F 29.9 in NNE 2.9 mph 6 mph 23.2% 0 in
13:09 96.3 °F 52.3 °F 29.9 in NNE 3 mph 7.4 mph 23% 0 in
13:14 96.4 °F 52.3 °F 29.9 in ONO 3.6 mph 7 mph 22.8% 0 in
13:19 96.6 °F 51.6 °F 29.9 in Oeste 3.5 mph 7 mph 22% 0 in
13:24 96.8 °F 51.6 °F 29.9 in ONO 2.9 mph 5.9 mph 22% 0 in
13:29 97 °F 51.8 °F 29.9 in SO 2.9 mph 6 mph 22% 0 in
13:34 97.2 °F 51.6 °F 29.9 in SSO 3.1 mph 5.2 mph 21.7% 0 in
13:39 97.3 °F 51.6 °F 29.9 in NNE 3 mph 5 mph 21.5% 0 in
13:44 97.5 °F 51.1 °F 29.9 in NO 2.9 mph 6.2 mph 21% 0 in
13:49 97.3 °F 50.9 °F 29.9 in ONO 2.9 mph 6 mph 21% 0 in
13:54 97.7 °F 51.1 °F 29.9 in SE 2.9 mph 5.9 mph 21% 0 in
13:59 98.1 °F 51.6 °F 29.9 in SO 2.9 mph 6.9 mph 21.1% 0 in
14:04 98.1 °F 51.4 °F 29.9 in SE 2.9 mph 9.2 mph 21% 0 in
14:09 97.9 °F 52.2 °F 29.8 in ESE 3.2 mph 9 mph 21.6% 0 in
14:14 98.1 °F 52.2 °F 29.8 in ESE 4.7 mph 6 mph 21.6% 0 in
14:19 98.4 °F 51.8 °F 29.8 in SE 4.4 mph 9.2 mph 21.1% 0 in
14:24 98.4 °F 52.2 °F 29.8 in ENE 3.1 mph 9.2 mph 21.3% 0 in
14:29 98.4 °F 51.8 °F 29.8 in ENE 3.3 mph 9 mph 21% 0 in
14:34 98.4 °F 52 °F 29.8 in ESE 4.3 mph 7.4 mph 21% 0 in
14:39 99 °F 52.3 °F 29.8 in NE 4.1 mph 11.2 mph 21.2% 0 in
14:44 98.8 °F 52.2 °F 29.8 in NNE 3.1 mph 13.8 mph 21% 0 in
14:49 98.8 °F 52.2 °F 29.8 in Este 3.8 mph 14 mph 21.1% 0 in
14:54 98.8 °F 52.7 °F 29.8 in ENE 6.9 mph 12 mph 21.4% 0 in
14:59 99 °F 53.6 °F 29.8 in Este 6.5 mph 11 mph 22% 0 in
15:04 99 °F 53.8 °F 29.8 in ENE 4.7 mph 8.5 mph 22.2% 0 in
15:09 99.1 °F 54.5 °F 29.8 in ESE 4.7 mph 9.2 mph 22.7% 0 in
15:14 99.3 °F 54.3 °F 29.8 in Este 4.7 mph 9 mph 22.4% 0 in
15:19 99.5 °F 55 °F 29.8 in ENE 4.7 mph 9.7 mph 23% 0 in
15:24 99.3 °F 56.8 °F 29.8 in ENE 4.3 mph 11.5 mph 24.6% 0 in
15:29 99.1 °F 60.1 °F 29.8 in ESE 4.7 mph 16.3 mph 27.7% 0 in
15:34 99.5 °F 59.5 °F 29.8 in SSE 6.9 mph 16.1 mph 27.1% 0 in
15:39 99.7 °F 59.9 °F 29.8 in SE 7.4 mph 16.8 mph 27.2% 0 in
15:44 99.1 °F 59.5 °F 29.8 in SE 9.7 mph 17.5 mph 27.3% 0 in
15:49 99.1 °F 59.4 °F 29.8 in SE 9.8 mph 17.3 mph 27.1% 0 in
15:54 99.1 °F 59.4 °F 29.8 in SE 10.2 mph 15 mph 27% 0 in
15:59 99.3 °F 59.4 °F 29.8 in ESE 10.1 mph 17.3 mph 27% 0 in
16:04 99 °F 59 °F 29.8 in SE 9.7 mph 17 mph 26.8% 0 in
16:09 99.1 °F 58.3 °F 29.8 in ESE 9.6 mph 18.4 mph 26.1% 0 in
16:14 99 °F 57.9 °F 29.8 in SE 9.2 mph 18 mph 25.9% 0 in
16:19 99.1 °F 57.7 °F 29.8 in ESE 9.3 mph 18.4 mph 25.6% 0 in
16:24 99.1 °F 56.5 °F 29.8 in SE 9.7 mph 17.3 mph 24.4% 0 in
16:29 99.5 °F 56.3 °F 29.8 in SE 9.7 mph 17.3 mph 24% 0 in
16:34 99.5 °F 56.3 °F 29.8 in SE 9.7 mph 17.3 mph 23.9% 0 in
16:39 99.3 °F 56.1 °F 29.8 in ESE 10.1 mph 21.3 mph 24% 0 in
16:44 98.8 °F 56.3 °F 29.8 in ESE 11.8 mph 21 mph 24.5% 0 in
16:49 98.8 °F 56.8 °F 29.8 in ESE 11.7 mph 18.4 mph 25% 0 in
16:54 98.6 °F 57.2 °F 29.8 in ESE 11.4 mph 21.3 mph 25.5% 0 in
16:59 98.2 °F 58.1 °F 29.8 in ESE 11.9 mph 21.3 mph 26.5% 0 in
17:04 98.1 °F 59.5 °F 29.8 in ESE 13.7 mph 21 mph 28.1% 0 in
17:09 97.9 °F 60.3 °F 29.8 in ESE 13.7 mph 24.2 mph 29% 0 in
17:14 97.9 °F 60.1 °F 29.8 in ESE 13.5 mph 24 mph 29% 0 in
17:19 98.1 °F 60.3 °F 29.8 in ESE 13 mph 21 mph 29% 0 in
17:24 98.1 °F 60.4 °F 29.8 in ESE 10.7 mph 21.3 mph 29% 0 in
17:29 97.9 °F 60.1 °F 29.8 in ESE 11.1 mph 21 mph 29% 0 in
17:34 97.5 °F 60.4 °F 29.8 in ESE 13 mph 24.6 mph 29.4% 0 in
17:39 97.3 °F 60.4 °F 29.8 in ESE 13 mph 25 mph 29.6% 0 in
17:44 97.9 °F 60.1 °F 29.8 in ESE 13 mph 23 mph 29% 0 in
17:49 98.1 °F 59.5 °F 29.8 in SE 12.5 mph 21.3 mph 28.2% 0 in
17:54 98.1 °F 59.4 °F 29.8 in SE 10.2 mph 21 mph 28% 0 in
17:59 98.1 °F 58.5 °F 29.8 in ESE 10.4 mph 20 mph 27% 0 in
18:04 98.1 °F 58.3 °F 29.8 in SE 11.2 mph 19 mph 26.8% 0 in
18:09 98.2 °F 57.4 °F 29.8 in ESE 11 mph 20.7 mph 26% 0 in
18:14 98.1 °F 57.2 °F 29.8 in ESE 10 mph 21 mph 26% 0 in
18:19 98.1 °F 57.2 °F 29.8 in ESE 9.8 mph 16.3 mph 25.8% 0 in
18:24 98.2 °F 56.5 °F 29.8 in SE 8.7 mph 16.1 mph 25% 0 in
18:29 98.2 °F 56.5 °F 29.8 in SE 8.8 mph 16 mph 25% 0 in
18:34 98.1 °F 56.3 °F 29.8 in ESE 9.2 mph 13 mph 25% 0 in
18:39 97.9 °F 56.1 °F 29.8 in ESE 9.4 mph 21.9 mph 25% 0 in
18:44 97.3 °F 56.3 °F 29.8 in SE 10.7 mph 22 mph 25.6% 0 in
18:49 97.3 °F 57 °F 29.8 in ESE 10.6 mph 18 mph 26.2% 0 in
18:54 97.2 °F 57.6 °F 29.8 in SE 10.2 mph 16.3 mph 27% 0 in
18:59 96.8 °F 57.2 °F 29.8 in SE 10.2 mph 18.4 mph 26.9% 0 in
19:04 96.6 °F 57.2 °F 29.8 in SE 10 mph 18 mph 27% 0 in
19:09 96.6 °F 56.7 °F 29.8 in SE 9.8 mph 17.5 mph 26.5% 0 in
19:14 96.4 °F 55.9 °F 29.8 in SE 8.1 mph 18.5 mph 26% 0 in
19:19 96.1 °F 56.7 °F 29.8 in SE 8.4 mph 19 mph 27% 0 in
19:24 95.7 °F 56.5 °F 29.8 in SE 10 mph 19.6 mph 27% 0 in
19:29 95.4 °F 56.7 °F 29.8 in SE 10.1 mph 20 mph 27.6% 0 in
19:34 95 °F 55.9 °F 29.8 in SSE 10.7 mph 17 mph 27.1% 0 in
19:39 94.8 °F 56.1 °F 29.8 in SE 10.6 mph 16 mph 27.6% 0 in
19:44 94.6 °F 56.1 °F 29.8 in SE 10.2 mph 15 mph 27.6% 0 in
19:49 94.6 °F 55.6 °F 29.8 in SE 9.8 mph 13 mph 27% 0 in
19:54 94.6 °F 54.5 °F 29.8 in SE 6.9 mph 13 mph 26% 0 in
19:59 94.6 °F 54.3 °F 29.8 in SE 7 mph 13.8 mph 25.9% 0 in
20:04 94.5 °F 54.1 °F 29.8 in SE 7.4 mph 14 mph 25.9% 0 in
20:09 94.5 °F 54.3 °F 29.8 in SE 7.2 mph 14 mph 26% 0 in
20:14 94.1 °F 54 °F 29.8 in SE 6.2 mph 13 mph 26% 0 in
20:19 93.9 °F 54.1 °F 29.8 in SE 6.2 mph 13 mph 26.3% 0 in
20:24 93.7 °F 54.9 °F 29.8 in SE 6.4 mph 10 mph 27% 0 in
20:29 93.6 °F 55.6 °F 29.8 in SE 6.3 mph 9 mph 27.9% 0 in
20:34 93.6 °F 55.9 °F 29.8 in ESE 5.2 mph 9.2 mph 28.4% 0 in
20:39 93.4 °F 56.5 °F 29.8 in ESE 5 mph 9 mph 29.2% 0 in
20:44 93 °F 57 °F 29.8 in SE 4.3 mph 7 mph 30% 0 in
20:49 92.8 °F 56.8 °F 29.8 in ESE 4.3 mph 7 mph 30.1% 0 in
20:54 92.7 °F 57.6 °F 29.8 in SE 4 mph 6 mph 31% 0 in
20:59 92.5 °F 57.4 °F 29.8 in SE 3.7 mph 5 mph 31% 0 in
21:04 92.1 °F 57.2 °F 29.8 in ESE 2.4 mph 5 mph 31% 0 in
21:09 92.1 °F 57.6 °F 29.8 in ESE 2.2 mph 3.6 mph 31.4% 0 in
21:14 91.9 °F 57.6 °F 29.8 in Este 1.4 mph 4 mph 31.7% 0 in
21:19 91.8 °F 57.9 °F 29.8 in NNO 1.5 mph 5.9 mph 32.3% 0 in
21:24 91.2 °F 58.1 °F 29.8 in NNE 2 mph 6 mph 33% 0 in
21:29 90.9 °F 57.9 °F 29.8 in NE 2 mph 5 mph 33% 0 in
21:34 90.9 °F 57.7 °F 29.8 in NE 2 mph 4.6 mph 33.2% 0 in
21:39 90.5 °F 58.1 °F 29.8 in NE 2.1 mph 5 mph 33.7% 0 in
21:44 90.3 °F 57.9 °F 29.8 in NE 2.4 mph 5 mph 33.7% 0 in
21:49 90.1 °F 58.1 °F 29.8 in NNO 2.4 mph 4.7 mph 34.2% 0 in
21:54 89.8 °F 58.5 °F 29.8 in NNO 2.4 mph 5.8 mph 35% 0 in
21:59 89.2 °F 58.3 °F 29.8 in North 2.5 mph 6 mph 35.2% 0 in
22:04 89.1 °F 58.5 °F 29.8 in NNO 2.9 mph 5 mph 35.9% 0 in
22:09 88.7 °F 58.3 °F 29.8 in NO 2.7 mph 5 mph 36% 0 in
22:14 88.5 °F 58.3 °F 29.8 in NO 2 mph 4 mph 36.2% 0 in
22:19 88.3 °F 58.8 °F 29.8 in Este 2 mph 5.9 mph 37% 0 in
22:24 88.2 °F 59.2 °F 29.8 in Este 1.8 mph 6 mph 37.6% 0 in
22:29 88 °F 60.6 °F 29.8 in NO 1.9 mph 6 mph 40% 0 in
22:34 87.6 °F 60.8 °F 29.8 in NO 2.4 mph 6 mph 40.6% 0 in
22:39 87.3 °F 61.5 °F 29.8 in NO 2.4 mph 5 mph 42% 0 in
22:44 87.1 °F 61.7 °F 29.8 in NO 2 mph 5 mph 42.7% 0 in
22:49 86.7 °F 61.9 °F 29.8 in NO 2.2 mph 5 mph 43.5% 0 in
22:54 86.4 °F 62.1 °F 29.8 in NNO 3.1 mph 5.9 mph 44.3% 0 in
22:59 85.8 °F 62.1 °F 29.8 in NO 3.1 mph 6 mph 45.1% 0 in
23:04 85.5 °F 62.2 °F 29.9 in NO 3.1 mph 5.8 mph 46% 0 in
23:09 85.1 °F 62.4 °F 29.9 in NO 3.1 mph 6 mph 46.8% 0 in
23:14 84.7 °F 62.1 °F 29.9 in NO 3.1 mph 5.2 mph 46.5% 0 in
23:19 84.7 °F 61.7 °F 29.9 in NO 3 mph 5 mph 46% 0 in
23:24 84.7 °F 62.2 °F 29.9 in NO 2.9 mph 6.2 mph 46.9% 0 in
23:29 84.4 °F 62.2 °F 29.9 in NO 3 mph 6.2 mph 47.5% 0 in
23:34 84.2 °F 62.6 °F 29.9 in NO 4 mph 6 mph 48.5% 0 in
23:39 84 °F 63.3 °F 29.9 in NO 3.9 mph 6 mph 49.9% 0 in
23:44 83.8 °F 63.7 °F 29.9 in NO 3.1 mph 5.2 mph 50.7% 0 in
23:49 83.7 °F 63.9 °F 29.9 in NO 3 mph 5 mph 51.4% 0 in
23:54 83.5 °F 64 °F 29.9 in NO 2.9 mph 5 mph 52% 0 in
23:59 83.5 °F 63.9 °F 29.9 in NO 2.6 mph 3.6 mph 52% 0 in
Murcia-Puente Tocinos, España
Compliments of Weather Underground - 3 mb

La estación de MeteoMurcia.com, publica sus datos en los siguientes proyectos:

Weather Underground PWS IMURCIAP2 Meteoclimatic www.awekas.at

W3Counter
Web Analytics